KHQG

Hugoton Municipal Airport

Hugoton, Kansas, USA
METAR KHQG 201955Z AUTO 36011KT 7SM SCT045 24/06 A3018 RMK AO2 T02390063
Observed Flight Rules
Aug-20 @ 19:55 UTC (34 minutes ago) Visual Flight Rules
Wind Visibility Clouds
360° at 11 knots 7 miles
  • Scattered at 4,500' AGL
Temperatures Readings
Current 24°C / 75°F
Dewpoint 6°C / 43°F
Humidity 31%
Altimeter 30.18" Hg
Pressure 1022 hPa
Elevation 956
METAR KHQG 201955Z AUTO 36011KT 7SM SCT045 24/06 A3018 RMK AO2 T02390063
Observed Flight Rules
Aug-20 @ 19:55 UTC
(34 minutes ago)
VFR
Wind Visibility
360° at 11 knots 7 miles
Clouds
  • Scattered at 4,500' AGL
Temperature Dewpoint
24°C / 75°F 6°C / 43°F
Humidity Altimeter Pressure
31% 30.18" Hg 1022 hPa